Terminal Aerodrome Forecast
Issued by NWS Shreveport, LA

Current Version | Previous Version | Text Only | Print | Product List | Glossary On
Versions: 1 2 3 4 5 6 7 8 9 10 11 12 13 14 15 16 17 18 19 20
000
FTUS44 KSHV 272343
TAFSHV
TAF
KSHV 272343Z 2800/2824 12009KT P6SM FEW015 BKN280
     FM280600 18008KT 5SM BR OVC010
     FM281600 19012G20KT P6SM BKN025=

USA.gov is the U.S. government's official web portal to all federal, state and local government web resources and services.